Terminal Aerodrome Forecast
Issued by NWS Charleston, WV

Current Version | Previous Version | Graphics & Text | Print | Product List | Glossary On
Versions: 1 2 3 4 5 6 7 8 9 10 11 12 13 14 15 16 17 18 19 20 21 22 23 24
000
FTUS41 KRLX 281800 AAA
TAFCRW
TAF AMD
KCRW 281850Z 2819/2918 VRB05KT 1SM -RA BR OVC004
     FM282000 VRB03KT 2SM -RA BR SCT001 OVC006
     FM282300 32004KT P6SM OVC008
     FM290600 02004KT P6SM BKN010=

USA.gov is the U.S. government's official web portal to all federal, state and local government web resources and services.